createdAt,value
2023-05-09T00:00:56.528Z,19.29
2023-05-09T00:03:24.558Z,19.35
2023-05-09T00:05:52.479Z,19.32
2023-05-09T00:08:20.179Z,19.24
2023-05-09T00:10:49.232Z,19.15
2023-05-09T00:13:17.690Z,19.14
2023-05-09T00:15:46.638Z,18.96
2023-05-09T00:18:15.184Z,18.87
2023-05-09T00:20:44.362Z,18.96
2023-05-09T00:23:12.075Z,18.99
2023-05-09T00:25:39.815Z,18.81
2023-05-09T00:28:08.997Z,18.74
2023-05-09T00:30:36.628Z,18.62
2023-05-09T00:33:04.387Z,18.59
2023-05-09T00:35:32.471Z,18.75
2023-05-09T00:38:00.240Z,18.82
2023-05-09T00:40:28.356Z,18.81
2023-05-09T00:42:58.305Z,19.10
2023-05-09T00:45:27.580Z,19.17
2023-05-09T00:47:55.317Z,19.30
2023-05-09T00:50:23.080Z,19.32
2023-05-09T00:52:51.492Z,19.38
2023-05-09T00:55:19.629Z,19.39
2023-05-09T00:57:47.699Z,19.33
2023-05-09T01:00:16.717Z,19.35
2023-05-09T01:02:47.702Z,19.40
2023-05-09T01:05:16.124Z,19.29
2023-05-09T01:07:47.483Z,19.24
2023-05-09T01:10:24.167Z,19.24
2023-05-09T01:12:56.279Z,19.33
2023-05-09T01:15:29.063Z,19.38
2023-05-09T01:18:01.108Z,19.36
2023-05-09T01:20:33.691Z,19.33
2023-05-09T01:23:17.090Z,19.33
2023-05-09T01:25:56.251Z,19.32
2023-05-09T01:28:54.697Z,19.29
2023-05-09T01:31:24.650Z,19.23
2023-05-09T01:33:56.042Z,19.21
2023-05-09T01:36:24.588Z,19.16
2023-05-09T01:38:53.154Z,19.13
2023-05-09T01:41:23.843Z,19.10
2023-05-09T01:43:51.986Z,19.05
2023-05-09T01:46:20.600Z,18.94
2023-05-09T01:48:51.150Z,18.98
2023-05-09T01:51:20.227Z,18.97
2023-05-09T01:53:49.577Z,18.95
2023-05-09T01:56:17.812Z,18.80
2023-05-09T01:58:48.208Z,18.87
2023-05-09T02:01:16.278Z,18.86
2023-05-09T02:03:44.643Z,18.83
2023-05-09T02:06:15.137Z,18.71
2023-05-09T02:08:43.680Z,18.71
2023-05-09T02:11:11.365Z,18.61
2023-05-09T02:13:39.319Z,18.61
2023-05-09T02:16:07.950Z,18.52
2023-05-09T02:18:35.752Z,18.47
2023-05-09T02:21:04.045Z,18.39
2023-05-09T02:23:33.173Z,18.46
2023-05-09T02:26:00.968Z,18.41
2023-05-09T02:28:29.190Z,18.43
2023-05-09T02:30:58.673Z,18.51
2023-05-09T02:33:26.647Z,18.55
2023-05-09T02:35:54.897Z,18.53
2023-05-09T02:38:22.574Z,18.52
2023-05-09T02:40:52.555Z,18.57
2023-05-09T02:43:20.431Z,18.50
2023-05-09T02:45:48.147Z,18.50
2023-05-09T02:48:15.897Z,18.45
2023-05-09T02:50:44.355Z,18.41
2023-05-09T02:53:12.121Z,18.52
2023-05-09T02:55:39.846Z,18.55
2023-05-09T02:58:14.125Z,18.56
2023-05-09T03:00:43.257Z,18.45
2023-05-09T03:03:11.400Z,18.47
2023-05-09T03:05:39.269Z,18.38
2023-05-09T03:08:07.062Z,18.42
2023-05-09T03:10:35.298Z,18.44
2023-05-09T03:13:03.008Z,18.45
2023-05-09T03:15:32.116Z,18.54
2023-05-09T03:17:59.797Z,18.47
2023-05-09T03:20:27.729Z,18.49
2023-05-09T03:22:55.466Z,18.51
2023-05-09T03:25:23.353Z,18.49
2023-05-09T03:27:51.055Z,18.55
2023-05-09T03:30:19.129Z,18.52
2023-05-09T03:32:48.235Z,18.56
2023-05-09T03:35:16.287Z,18.58
2023-05-09T03:37:44.180Z,18.57
2023-05-09T03:40:12.675Z,18.63
2023-05-09T03:42:40.328Z,18.66
2023-05-09T03:45:09.154Z,18.61
2023-05-09T03:47:36.885Z,18.61
2023-05-09T03:50:07.095Z,18.67
2023-05-09T03:52:34.786Z,18.67
2023-05-09T03:55:02.724Z,18.67
2023-05-09T03:57:30.403Z,18.61
2023-05-09T03:59:58.138Z,18.62
2023-05-09T04:02:26.068Z,18.68
2023-05-09T04:04:53.897Z,18.62
2023-05-09T04:07:23.105Z,18.59
2023-05-09T04:09:50.772Z,18.50
2023-05-09T04:12:18.803Z,18.53
2023-05-09T04:14:48.904Z,18.47
2023-05-09T04:17:16.834Z,18.57
2023-05-09T04:19:44.557Z,18.50
2023-05-09T04:22:12.637Z,18.35
2023-05-09T04:24:42.126Z,18.35
2023-05-09T04:27:09.789Z,18.32
2023-05-09T04:29:38.371Z,18.38
2023-05-09T04:32:06.509Z,18.48
2023-05-09T04:34:34.307Z,18.64
2023-05-09T04:37:01.995Z,18.66
2023-05-09T04:39:30.429Z,18.63
2023-05-09T04:41:59.468Z,18.70
2023-05-09T04:44:27.569Z,18.84
2023-05-09T04:46:55.972Z,18.76
2023-05-09T04:49:23.626Z,18.79
2023-05-09T04:51:52.278Z,18.74
2023-05-09T04:54:19.926Z,18.66
2023-05-09T04:56:50.052Z,18.64
2023-05-09T04:59:19.739Z,18.67
2023-05-09T05:01:47.539Z,18.67
2023-05-09T05:04:15.328Z,18.83
2023-05-09T05:06:42.989Z,18.93
2023-05-09T05:09:11.120Z,19.12
2023-05-09T05:11:38.972Z,19.22
2023-05-09T05:14:07.979Z,19.31
2023-05-09T05:16:37.121Z,19.27
2023-05-09T05:19:05.167Z,19.21
2023-05-09T05:21:32.810Z,19.10
2023-05-09T05:24:00.493Z,19.16
2023-05-09T05:26:29.015Z,19.27
2023-05-09T05:28:57.199Z,19.26
2023-05-09T05:31:24.866Z,19.16
2023-05-09T05:33:53.933Z,19.13
2023-05-09T05:36:21.790Z,19.19
2023-05-09T05:38:49.440Z,19.23
2023-05-09T05:41:17.093Z,19.24
2023-05-09T05:43:44.802Z,19.16
2023-05-09T05:46:12.528Z,19.01
2023-05-09T05:48:40.239Z,19.08
2023-05-09T05:51:09.333Z,19.16
2023-05-09T05:53:37.263Z,19.05
2023-05-09T05:56:05.351Z,19.14
2023-05-09T05:58:32.989Z,19.20
2023-05-09T06:01:00.879Z,19.19
2023-05-09T06:03:28.638Z,19.22
2023-05-09T06:05:56.904Z,19.30
2023-05-09T06:08:26.043Z,19.40
2023-05-09T06:10:53.780Z,19.38
2023-05-09T06:13:21.508Z,19.43
2023-05-09T06:15:49.275Z,19.38
2023-05-09T06:18:16.931Z,19.42
2023-05-09T06:20:44.586Z,19.51
2023-05-09T06:23:12.284Z,19.59
2023-05-09T06:25:41.401Z,19.62
2023-05-09T06:28:09.101Z,19.69
2023-05-09T06:30:36.817Z,19.74
2023-05-09T06:33:04.526Z,19.87
2023-05-09T06:35:32.300Z,19.97
2023-05-09T06:37:59.994Z,20.30
2023-05-09T06:40:27.843Z,20.41
2023-05-09T06:42:57.126Z,20.29
2023-05-09T06:45:24.847Z,20.29
2023-05-09T06:47:52.571Z,20.45
2023-05-09T06:50:20.382Z,20.62
2023-05-09T06:52:48.357Z,20.62
2023-05-09T06:55:16.359Z,20.80
2023-05-09T06:57:44.252Z,20.83
2023-05-09T07:00:14.946Z,20.77
2023-05-09T07:02:43.223Z,20.78
2023-05-09T07:05:11.738Z,21.05
2023-05-09T07:07:39.413Z,21.03
2023-05-09T07:10:11.900Z,21.12
2023-05-09T07:12:40.333Z,21.11
2023-05-09T07:15:09.572Z,21.21
2023-05-09T07:17:38.690Z,21.30
2023-05-09T07:20:07.884Z,21.19
2023-05-09T07:22:37.374Z,21.19
2023-05-09T07:25:07.799Z,21.46
2023-05-09T07:27:35.518Z,21.64
2023-05-09T07:30:03.369Z,21.85
2023-05-09T07:32:31.133Z,22.09
2023-05-09T07:35:00.264Z,22.50
2023-05-09T07:37:27.947Z,22.96
2023-05-09T07:39:55.835Z,23.28
2023-05-09T07:42:23.561Z,23.27
2023-05-09T07:44:51.246Z,23.06
2023-05-09T07:47:18.950Z,22.63
2023-05-09T07:49:47.999Z,22.63
2023-05-09T07:52:17.942Z,22.58
2023-05-09T07:54:45.870Z,22.57
2023-05-09T07:57:13.640Z,22.61
2023-05-09T07:59:42.394Z,22.37
2023-05-09T08:02:10.228Z,22.51
2023-05-09T08:04:41.184Z,22.76
2023-05-09T08:07:09.670Z,22.85
2023-05-09T08:09:38.740Z,22.91
2023-05-09T08:12:07.029Z,23.24
2023-05-09T08:14:34.750Z,23.28
2023-05-09T08:17:02.443Z,23.30
2023-05-09T08:19:30.217Z,23.05
2023-05-09T08:21:57.908Z,22.97
2023-05-09T08:24:25.625Z,22.76
2023-05-09T08:26:54.820Z,22.28
2023-05-09T08:29:22.514Z,22.17
2023-05-09T08:31:51.230Z,22.10
2023-05-09T08:34:19.027Z,22.37
2023-05-09T08:36:47.008Z,22.56
2023-05-09T08:39:15.060Z,22.70
2023-05-09T08:41:43.408Z,22.49
2023-05-09T08:44:12.637Z,22.84
2023-05-09T08:46:44.209Z,23.45
2023-05-09T08:49:12.183Z,24.18
2023-05-09T08:51:40.238Z,24.69
2023-05-09T08:54:08.376Z,24.65
2023-05-09T08:56:36.432Z,24.42
2023-05-09T08:59:05.725Z,23.91
2023-05-09T09:01:36.442Z,23.95
2023-05-09T09:04:07.166Z,24.19
2023-05-09T09:06:35.529Z,24.61
2023-05-09T09:09:06.041Z,25.29
2023-05-09T09:11:34.763Z,25.45
2023-05-09T09:14:03.384Z,25.16
2023-05-09T09:16:31.879Z,24.93
2023-05-09T09:19:01.490Z,25.11
2023-05-09T09:21:29.214Z,24.95
2023-05-09T09:23:57.088Z,24.72
2023-05-09T09:26:25.014Z,24.97
2023-05-09T09:28:54.324Z,24.57
2023-05-09T09:31:23.414Z,24.33
2023-05-09T09:33:52.184Z,24.60
2023-05-09T09:36:29.178Z,25.04
2023-05-09T09:39:01.448Z,25.18
2023-05-09T09:41:33.726Z,25.49
2023-05-09T09:44:07.763Z,25.67
2023-05-09T09:46:53.684Z,25.13
2023-05-09T09:49:22.179Z,24.85
2023-05-09T09:51:56.061Z,25.10
2023-05-09T09:54:24.114Z,25.62
2023-05-09T09:56:54.293Z,26.26
2023-05-09T09:59:23.546Z,26.39
2023-05-09T10:01:56.204Z,25.97
2023-05-09T10:04:24.342Z,25.43
2023-05-09T10:06:58.145Z,25.35
2023-05-09T10:09:27.281Z,25.06
2023-05-09T10:11:56.717Z,25.49
2023-05-09T10:14:25.761Z,26.25
2023-05-09T10:16:56.664Z,26.50
2023-05-09T10:19:26.464Z,26.24
2023-05-09T10:21:57.241Z,26.61
2023-05-09T10:24:29.967Z,26.30
2023-05-09T10:27:01.667Z,26.35
2023-05-09T10:29:31.929Z,26.20
2023-05-09T10:32:02.626Z,26.67
2023-05-09T10:34:33.003Z,26.56
2023-05-09T10:37:02.646Z,26.75
2023-05-09T10:39:30.605Z,26.90
2023-05-09T10:41:59.811Z,27.02
2023-05-09T10:44:27.732Z,26.77
2023-05-09T10:46:55.702Z,25.96
2023-05-09T10:49:23.752Z,26.57
2023-05-09T10:51:52.238Z,26.65
2023-05-09T10:54:33.408Z,26.65
2023-05-09T10:57:01.168Z,26.10
2023-05-09T10:59:37.339Z,25.63
2023-05-09T11:02:05.902Z,25.32
2023-05-09T11:04:33.863Z,25.27
2023-05-09T11:07:01.913Z,24.92
2023-05-09T11:09:33.837Z,25.44
2023-05-09T11:12:12.844Z,25.57
2023-05-09T11:14:45.491Z,25.43
2023-05-09T11:17:14.467Z,25.46
2023-05-09T11:20:00.714Z,25.79
2023-05-09T11:22:30.642Z,25.58
2023-05-09T11:25:05.599Z,25.32
2023-05-09T11:27:39.900Z,25.50
2023-05-09T11:30:09.245Z,25.23
2023-05-09T11:32:43.227Z,25.44
2023-05-09T11:35:14.937Z,25.32
2023-05-09T11:37:47.987Z,25.11
2023-05-09T11:40:18.548Z,24.93
2023-05-09T11:42:47.423Z,25.39
2023-05-09T11:45:16.081Z,26.04
2023-05-09T11:47:44.237Z,26.65
2023-05-09T11:50:13.637Z,27.04
2023-05-09T11:52:41.888Z,26.98
2023-05-09T11:55:12.723Z,26.94
2023-05-09T11:57:44.284Z,27.74
2023-05-09T12:00:12.968Z,27.70
2023-05-09T12:02:40.687Z,28.01
2023-05-09T12:05:10.148Z,28.04
2023-05-09T12:07:39.550Z,27.90
2023-05-09T12:10:08.714Z,27.79
2023-05-09T12:12:36.698Z,27.15
2023-05-09T12:15:09.008Z,26.55
2023-05-09T12:17:36.956Z,26.75
2023-05-09T12:20:05.985Z,26.50
2023-05-09T12:22:34.094Z,27.29
2023-05-09T12:25:03.927Z,27.85
2023-05-09T12:27:33.062Z,27.87
2023-05-09T12:30:01.477Z,28.19
2023-05-09T12:32:32.940Z,28.34
2023-05-09T12:35:01.462Z,28.37
2023-05-09T12:37:32.532Z,27.98
2023-05-09T12:40:06.331Z,28.10
2023-05-09T12:42:34.396Z,28.13
2023-05-09T12:45:03.144Z,28.12
2023-05-09T12:47:32.995Z,28.20
2023-05-09T12:50:01.569Z,28.18
2023-05-09T12:52:35.354Z,28.40
2023-05-09T12:55:06.888Z,28.33
2023-05-09T12:57:34.618Z,28.55
2023-05-09T13:00:04.170Z,28.21
2023-05-09T13:02:37.071Z,27.41
2023-05-09T13:05:10.790Z,26.70
2023-05-09T13:07:42.133Z,25.01
2023-05-09T13:10:13.701Z,25.50
2023-05-09T13:12:44.627Z,25.63
2023-05-09T13:15:12.947Z,25.45
2023-05-09T13:17:42.245Z,24.98
2023-05-09T13:20:10.613Z,25.32
2023-05-09T13:22:38.631Z,25.50
2023-05-09T13:25:07.151Z,25.05
2023-05-09T13:27:35.774Z,25.19
2023-05-09T13:30:03.719Z,25.10
2023-05-09T13:32:31.636Z,24.80
2023-05-09T13:35:00.946Z,25.16
2023-05-09T13:37:28.680Z,24.85
2023-05-09T13:39:56.490Z,24.67
2023-05-09T13:42:24.108Z,24.69
2023-05-09T13:44:51.770Z,24.49
2023-05-09T13:47:19.437Z,24.27
2023-05-09T13:49:47.069Z,23.70
2023-05-09T13:52:16.897Z,23.59
2023-05-09T13:54:44.626Z,23.51
2023-05-09T13:57:12.701Z,23.16
2023-05-09T13:59:42.122Z,23.52
2023-05-09T14:02:10.893Z,24.00
2023-05-09T14:04:38.688Z,24.07
2023-05-09T14:07:06.710Z,23.84
2023-05-09T14:09:39.967Z,23.57
2023-05-09T14:12:08.156Z,23.35
2023-05-09T14:14:36.004Z,23.36
2023-05-09T14:17:04.450Z,23.67
2023-05-09T14:19:32.119Z,23.75
2023-05-09T14:21:59.773Z,23.93
2023-05-09T14:24:30.813Z,23.82
2023-05-09T14:26:59.901Z,23.22
2023-05-09T14:29:27.725Z,22.72
2023-05-09T14:31:55.756Z,22.53
2023-05-09T14:34:23.457Z,22.37
2023-05-09T14:36:51.284Z,22.69
2023-05-09T14:39:20.463Z,23.06
2023-05-09T14:41:50.023Z,22.98
2023-05-09T14:44:19.059Z,22.78
2023-05-09T14:46:46.788Z,22.24
2023-05-09T14:49:14.538Z,21.79
2023-05-09T14:51:42.263Z,21.96
2023-05-09T14:54:09.923Z,21.51
2023-05-09T14:56:37.938Z,21.50
2023-05-09T14:59:05.647Z,21.20
2023-05-09T15:01:34.760Z,21.04
2023-05-09T15:04:02.551Z,20.97
2023-05-09T15:06:30.466Z,21.03
2023-05-09T15:08:58.166Z,20.60
2023-05-09T15:11:28.645Z,20.11
2023-05-09T15:13:58.497Z,20.56
2023-05-09T15:16:26.561Z,20.65
2023-05-09T15:18:56.449Z,20.82
2023-05-09T15:21:24.147Z,20.69
2023-05-09T15:23:51.780Z,20.51
2023-05-09T15:26:19.556Z,20.63
2023-05-09T15:28:47.280Z,20.70
2023-05-09T15:31:15.341Z,20.59
2023-05-09T15:33:43.205Z,20.73
2023-05-09T15:36:12.660Z,20.66
2023-05-09T15:38:40.328Z,20.81
2023-05-09T15:41:08.981Z,20.81
2023-05-09T15:43:36.702Z,20.97
2023-05-09T15:46:04.362Z,20.84
2023-05-09T15:48:32.123Z,21.11
2023-05-09T15:50:59.768Z,21.21
2023-05-09T15:53:28.834Z,20.79
2023-05-09T15:55:56.852Z,20.42
2023-05-09T15:58:24.555Z,20.26
2023-05-09T16:00:52.401Z,20.06
2023-05-09T16:03:20.239Z,20.24
2023-05-09T16:05:48.276Z,20.16
2023-05-09T16:08:16.020Z,19.98
2023-05-09T16:10:48.785Z,19.86
2023-05-09T16:13:17.752Z,20.37
2023-05-09T16:15:47.824Z,20.27
2023-05-09T16:18:15.604Z,20.26
2023-05-09T16:20:44.034Z,20.37
2023-05-09T16:23:11.880Z,20.31
2023-05-09T16:25:39.736Z,20.15
2023-05-09T16:28:08.882Z,20.27
2023-05-09T16:30:36.575Z,20.16
2023-05-09T16:33:04.270Z,20.37
2023-05-09T16:35:32.028Z,20.61
2023-05-09T16:37:59.772Z,20.69
2023-05-09T16:40:27.543Z,20.84
2023-05-09T16:42:55.213Z,20.81
2023-05-09T16:45:24.295Z,20.83
2023-05-09T16:47:53.256Z,20.69
2023-05-09T16:50:21.135Z,20.46
2023-05-09T16:52:49.083Z,20.41
2023-05-09T16:55:17.046Z,20.32
2023-05-09T16:57:44.787Z,20.22
2023-05-09T17:00:13.551Z,20.24
2023-05-09T17:02:42.730Z,20.30
2023-05-09T17:05:10.869Z,20.40
2023-05-09T17:07:38.756Z,20.39
2023-05-09T17:10:07.307Z,20.32
2023-05-09T17:12:35.190Z,20.11
2023-05-09T17:15:02.908Z,20.24
2023-05-09T17:17:30.809Z,20.14
2023-05-09T17:20:01.015Z,19.98
2023-05-09T17:22:28.898Z,20.03
2023-05-09T17:24:56.622Z,20.04
2023-05-09T17:27:24.345Z,20.03
2023-05-09T17:29:52.057Z,20.17
2023-05-09T17:32:19.753Z,20.07
2023-05-09T17:34:47.452Z,20.09
2023-05-09T17:37:17.217Z,20.14
2023-05-09T17:39:45.014Z,20.11
2023-05-09T17:42:12.912Z,20.26
2023-05-09T17:44:43.031Z,20.19
2023-05-09T17:47:12.560Z,20.21
2023-05-09T17:49:40.587Z,20.24
2023-05-09T17:52:08.250Z,20.17
2023-05-09T17:54:37.611Z,20.11
2023-05-09T17:57:05.305Z,20.03
2023-05-09T17:59:33.140Z,19.91
2023-05-09T18:02:00.891Z,19.88
2023-05-09T18:04:30.697Z,19.76
2023-05-09T18:06:58.382Z,19.74
2023-05-09T18:09:26.454Z,19.74
2023-05-09T18:11:55.477Z,19.79
2023-05-09T18:14:23.201Z,19.75
2023-05-09T18:16:50.928Z,19.46
2023-05-09T18:19:18.691Z,19.57
2023-05-09T18:21:46.437Z,19.39
2023-05-09T18:24:16.314Z,19.29
2023-05-09T18:26:44.711Z,19.28
2023-05-09T18:29:13.804Z,19.21
2023-05-09T18:31:41.770Z,19.02
2023-05-09T18:34:09.922Z,18.79
2023-05-09T18:36:37.674Z,18.96
2023-05-09T18:39:05.514Z,19.02
2023-05-09T18:41:34.198Z,19.05
2023-05-09T18:44:01.976Z,19.05
2023-05-09T18:46:33.585Z,19.11
2023-05-09T18:49:03.006Z,18.98
2023-05-09T18:51:31.175Z,18.99
2023-05-09T18:53:58.851Z,19.04
2023-05-09T18:56:26.511Z,18.80
2023-05-09T18:58:54.206Z,19.05
2023-05-09T19:01:24.285Z,19.09
2023-05-09T19:03:55.156Z,19.00
2023-05-09T19:06:24.059Z,18.95
2023-05-09T19:08:52.103Z,18.80
2023-05-09T19:11:19.771Z,18.96
2023-05-09T19:13:49.375Z,18.84
2023-05-09T19:16:19.546Z,18.68
2023-05-09T19:18:47.293Z,18.68
2023-05-09T19:21:18.661Z,18.70
2023-05-09T19:23:47.725Z,18.45
2023-05-09T19:26:15.998Z,18.50
2023-05-09T19:28:43.815Z,18.60
2023-05-09T19:31:11.619Z,18.59
2023-05-09T19:33:39.596Z,18.70
2023-05-09T19:36:07.881Z,18.60
2023-05-09T19:38:37.052Z,18.75
2023-05-09T19:41:04.837Z,18.79
2023-05-09T19:43:32.576Z,18.80
2023-05-09T19:46:00.866Z,18.78
2023-05-09T19:48:28.658Z,18.81
2023-05-09T19:50:57.826Z,18.87
2023-05-09T19:53:25.830Z,18.87
2023-05-09T19:55:54.857Z,18.80
2023-05-09T19:58:22.562Z,18.74
2023-05-09T20:00:50.238Z,18.66
2023-05-09T20:03:18.153Z,18.63
2023-05-09T20:05:45.958Z,18.62
2023-05-09T20:08:16.063Z,18.59
2023-05-09T20:10:43.739Z,18.51
2023-05-09T20:13:13.954Z,18.52
2023-05-09T20:15:41.662Z,18.52
2023-05-09T20:18:09.323Z,18.64
2023-05-09T20:20:37.263Z,18.64
2023-05-09T20:23:04.994Z,18.61
2023-05-09T20:25:33.088Z,18.63
2023-05-09T20:28:00.753Z,18.59
2023-05-09T20:30:29.802Z,18.55
2023-05-09T20:32:58.591Z,18.51
2023-05-09T20:35:26.407Z,18.51
2023-05-09T20:37:54.061Z,18.48
2023-05-09T20:40:21.851Z,18.46
2023-05-09T20:42:49.514Z,18.45
2023-05-09T20:45:17.732Z,18.43
2023-05-09T20:47:46.874Z,18.31
2023-05-09T20:50:14.799Z,18.39
2023-05-09T20:52:42.688Z,18.46
2023-05-09T20:55:10.804Z,18.53
2023-05-09T20:57:38.458Z,18.46
2023-05-09T21:00:07.553Z,18.48
2023-05-09T21:02:35.388Z,18.53
2023-05-09T21:05:04.801Z,18.53
2023-05-09T21:07:32.488Z,18.48
2023-05-09T21:10:00.212Z,18.45
2023-05-09T21:12:27.911Z,18.41
2023-05-09T21:14:56.337Z,18.41
2023-05-09T21:17:24.087Z,18.41
2023-05-09T21:19:52.252Z,18.36
2023-05-09T21:22:21.287Z,18.33
2023-05-09T21:24:49.117Z,18.31
2023-05-09T21:27:16.794Z,18.26
2023-05-09T21:29:44.441Z,18.34
2023-05-09T21:32:12.108Z,18.40
2023-05-09T21:34:39.746Z,18.25
2023-05-09T21:37:07.426Z,18.28
2023-05-09T21:39:36.424Z,18.33
2023-05-09T21:42:04.203Z,18.33
2023-05-09T21:44:31.914Z,18.30
2023-05-09T21:46:59.887Z,18.34
2023-05-09T21:49:28.355Z,18.39
2023-05-09T21:51:56.127Z,18.45
2023-05-09T21:54:23.851Z,18.61
2023-05-09T21:56:52.875Z,18.69
2023-05-09T21:59:22.238Z,18.71
2023-05-09T22:01:50.120Z,18.56
2023-05-09T22:04:17.776Z,18.52
2023-05-09T22:06:45.480Z,18.48
2023-05-09T22:09:13.135Z,18.41
2023-05-09T22:11:40.847Z,18.43
2023-05-09T22:14:10.321Z,18.56
2023-05-09T22:16:38.394Z,18.63
2023-05-09T22:19:06.128Z,18.58
2023-05-09T22:21:33.775Z,18.55
2023-05-09T22:24:01.477Z,18.53
2023-05-09T22:26:29.156Z,18.50
2023-05-09T22:28:56.811Z,18.53
2023-05-09T22:31:25.895Z,18.49
2023-05-09T22:33:53.584Z,18.53
2023-05-09T22:36:21.749Z,18.51
2023-05-09T22:38:49.403Z,18.47
2023-05-09T22:41:17.228Z,18.45
2023-05-09T22:43:44.992Z,18.49
2023-05-09T22:46:12.793Z,18.50
2023-05-09T22:48:41.917Z,18.46
2023-05-09T22:51:09.947Z,18.52
2023-05-09T22:53:37.961Z,18.52
2023-05-09T22:56:07.528Z,18.54
2023-05-09T22:58:35.271Z,18.50
2023-05-09T23:01:03.101Z,18.47
2023-05-09T23:03:30.890Z,18.61
2023-05-09T23:05:59.947Z,18.72
2023-05-09T23:08:27.636Z,18.78
2023-05-09T23:10:55.324Z,18.73
2023-05-09T23:13:23.551Z,18.74
2023-05-09T23:15:51.969Z,18.66
2023-05-09T23:18:21.006Z,18.35
2023-05-09T23:20:48.708Z,18.37
2023-05-09T23:23:17.780Z,18.45
2023-05-09T23:25:45.558Z,18.19
2023-05-09T23:28:13.584Z,18.08
2023-05-09T23:30:41.315Z,18.16
2023-05-09T23:33:08.983Z,18.31
2023-05-09T23:35:36.623Z,18.13
2023-05-09T23:38:04.675Z,17.84
2023-05-09T23:40:33.731Z,17.82
2023-05-09T23:43:01.389Z,17.86
2023-05-09T23:45:29.436Z,17.43
2023-05-09T23:47:58.143Z,16.67
2023-05-09T23:50:25.849Z,16.58
2023-05-09T23:52:53.557Z,16.31
2023-05-09T23:55:21.359Z,15.98
2023-05-09T23:57:50.411Z,16.07
